TimePDT,TemperatureF,Dew PointF,Humidity,Sea Level PressureIn,VisibilityMPH,Wind Direction,Wind SpeedMPH,Gust SpeedMPH,PrecipitationIn,Events,Conditions,WindDirDegrees,DateUTC
12:58 AM,79.3,54.9,43,30.06,10.0,South,2.3,-,N/A,,Clear,190,2013-07-03 07:58:00
1:58 AM,77.7,54.0,44,30.07,10.0,SSE,3.5,-,N/A,,Clear,150,2013-07-03 08:58:00
2:58 AM,78.3,53.8,43,30.06,10.0,SE,3.5,-,N/A,,Clear,130,2013-07-03 09:58:00
3:58 AM,74.3,56.8,54,30.04,10.0,SSW,8.1,-,N/A,,Clear,210,2013-07-03 10:58:00
4:58 AM,71.1,60.3,69,30.05,10.0,West,3.5,-,N/A,,Clear,280,2013-07-03 11:58:00
5:58 AM,70.7,58.3,65,30.05,10.0,North,3.5,-,N/A,,Clear,360,2013-07-03 12:58:00
6:58 AM,75.9,57.0,52,30.05,10.0,Calm,Calm,-,N/A,,Clear,0,2013-07-03 13:58:00
7:58 AM,79.2,57.7,48,30.06,10.0,WSW,1.2,-,N/A,,Clear,240,2013-07-03 14:58:00
8:58 AM,82.2,58.3,44,30.07,10.0,Variable,3.5,-,N/A,,Clear,0,2013-07-03 15:58:00
9:58 AM,86.4,58.8,39,30.05,10.0,SSE,2.3,-,N/A,,Clear,160,2013-07-03 16:58:00
10:58 AM,89.6,59.4,36,30.04,10.0,West,5.8,-,N/A,,Clear,260,2013-07-03 17:58:00
11:58 AM,93.2,61.2,34,30.03,10.0,West,4.6,-,N/A,,Clear,260,2013-07-03 18:58:00
12:58 PM,95.7,62.2,33,30.01,10.0,Variable,3.5,-,N/A,,Clear,0,2013-07-03 19:58:00
1:58 PM,99.0,63.3,31,29.99,10.0,Variable,2.3,-,N/A,,Clear,0,2013-07-03 20:58:00
2:58 PM,102.0,63.9,29,29.95,10.0,WSW,4.6,-,N/A,,Clear,240,2013-07-03 21:58:00
3:58 PM,104.7,65.8,28,29.92,10.0,SSW,9.2,-,N/A,,Clear,210,2013-07-03 22:58:00
4:58 PM,104.7,67.1,30,29.90,10.0,South,10.4,-,N/A,,Clear,190,2013-07-03 23:58:00
5:58 PM,103.8,66.0,29,29.90,10.0,South,11.5,-,N/A,,Clear,180,2013-07-04 00:58:00
6:58 PM,102.7,64.0,28,29.91,10.0,South,6.9,-,N/A,,Clear,190,2013-07-04 01:58:00
7:58 PM,99.0,66.7,35,29.91,10.0,SSW,5.8,-,N/A,,Clear,210,2013-07-04 02:58:00
8:58 PM,94.1,68.2,43,29.91,10.0,SE,1.2,-,N/A,,Clear,130,2013-07-04 03:58:00
9:30 PM,89.6,68.0,49,29.70,10.0,South,3.5,-,N/A,,Light Drizzle,180,2013-07-04 04:30:00
9:33 PM,89.6,68.0,49,29.70,10.0,South,4.6,-,N/A,,Clear,190,2013-07-04 04:33:00
9:58 PM,88.0,68.7,53,29.92,10.0,South,3.5,-,0.00,,Clear,180,2013-07-04 04:58:00
10:58 PM,88.2,68.2,51,29.93,10.0,ESE,2.3,-,N/A,,Clear,120,2013-07-04 05:58:00
11:58 PM,83.5,67.8,59,29.92,10.0,ESE,2.3,-,N/A,,Clear,120,2013-07-04 06:58:00